Time;durP1;ratioP1;P1;durP2;ratioP2;P2;SDS_P1;SDS_P2;PMS_P1;PMS_P2;Temp;Humidity;BMP_temperature;BMP_pressure;BME280_temperature;BME280_humidity;BME280_pressure;Samples;Min_cycle;Max_cycle;Signal;HPM_P1;HPM_P2
2023/06/08 00:00:26;;;;;;;13.02;7.43;;;11.60;99.90;;;;;;5087778;28;20040;-80
2023/06/08 00:02:55;;;;;;;13.23;6.63;;;11.40;99.90;;;;;;5088232;28;20101;-80
2023/06/08 00:05:21;;;;;;;13.10;7.60;;;11.70;99.90;;;;;;5087533;28;20040;-80
2023/06/08 00:07:47;;;;;;;11.57;6.30;;;11.60;99.90;;;;;;5071212;28;20044;-79
2023/06/08 00:10:12;;;;;;;8.68;6.72;;;11.70;99.90;;;;;;5087918;28;20050;-79
2023/06/08 00:12:38;;;;;;;15.45;7.50;;;11.70;99.90;;;;;;5087475;28;20079;-80
2023/06/08 00:15:05;;;;;;;12.05;6.82;;;11.70;99.90;;;;;;5087648;28;20048;-80
2023/06/08 00:17:31;;;;;;;13.48;6.70;;;11.70;99.90;;;;;;5087985;28;20043;-79
2023/06/08 00:19:59;;;;;;;13.10;6.93;;;11.70;99.90;;;;;;5087598;28;20437;-79
2023/06/08 00:22:29;;;;;;;14.18;6.82;;;11.70;99.90;;;;;;5087840;28;20051;-80
2023/06/08 00:24:54;;;;;;;13.35;6.78;;;11.80;99.90;;;;;;5087171;28;20607;-80
2023/06/08 00:27:20;;;;;;;12.27;7.30;;;11.80;99.90;;;;;;5087840;28;20076;-80
2023/06/08 00:29:45;;;;;;;13.73;7.50;;;11.80;99.90;;;;;;5070478;28;20127;-80
2023/06/08 00:32:11;;;;;;;13.88;7.90;;;11.80;99.90;;;;;;5088836;28;20066;-80
2023/06/08 00:34:37;;;;;;;14.07;7.75;;;11.80;99.90;;;;;;5088151;28;20079;-80
2023/06/08 00:37:02;;;;;;;14.57;7.25;;;11.80;99.90;;;;;;5070631;28;20048;-80
2023/06/08 00:39:28;;;;;;;14.23;7.85;;;11.80;99.90;;;;;;5070044;28;20036;-80
2023/06/08 00:41:54;;;;;;;11.90;7.15;;;11.80;99.90;;;;;;5088520;28;20057;-80
2023/06/08 00:44:19;;;;;;;13.95;8.00;;;11.80;99.90;;;;;;5087644;28;20076;-80
2023/06/08 00:46:45;;;;;;;14.13;7.80;;;11.80;99.90;;;;;;5089264;28;20127;-79
2023/06/08 00:49:17;;;;;;;13.25;7.72;;;11.80;99.90;;;;;;5088422;28;20113;-78
2023/06/08 00:51:43;;;;;;;10.93;7.73;;;11.90;99.90;;;;;;5087355;28;20484;-79
2023/06/08 00:54:12;;;;;;;11.18;7.70;;;11.80;99.90;;;;;;5086837;28;20293;-79
2023/06/08 00:56:38;;;;;;;15.63;7.93;;;11.80;99.90;;;;;;5086812;28;20044;-80
2023/06/08 00:59:05;;;;;;;15.07;8.23;;;11.80;99.90;;;;;;5087402;28;20056;-79
2023/06/08 01:01:31;;;;;;;14.43;8.40;;;11.80;99.90;;;;;;5088568;28;20371;-79
2023/06/08 01:04:06;;;;;;;13.25;8.70;;;11.80;99.90;;;;;;5087950;28;20047;-79
2023/06/08 01:06:46;;;;;;;13.32;8.80;;;11.90;99.90;;;;;;5086892;28;20158;-80
2023/06/08 01:09:24;;;;;;;15.88;8.82;;;11.70;99.90;;;;;;5088552;28;20047;-80
2023/06/08 01:12:08;;;;;;;12.60;7.43;;;11.80;99.90;;;;;;5088067;28;20044;-79
2023/06/08 01:14:41;;;;;;;13.18;7.63;;;11.70;99.90;;;;;;5086980;28;20044;-80
2023/06/08 01:17:09;;;;;;;13.98;7.10;;;11.60;99.90;;;;;;5069963;28;20052;-79
2023/06/08 01:20:02;;;;;;;15.90;7.60;;;11.60;99.90;;;;;;5087064;28;20541;-79
2023/06/08 01:22:41;;;;;;;18.80;8.20;;;11.60;99.90;;;;;;5086586;28;20568;-80
2023/06/08 01:25:08;;;;;;;14.25;8.55;;;11.50;99.90;;;;;;5069780;28;20471;-80
2023/06/08 01:27:36;;;;;;;16.52;9.27;;;11.60;99.90;;;;;;5087015;28;20444;-80
2023/06/08 01:30:04;;;;;;;14.88;9.57;;;11.60;99.90;;;;;;5085836;28;20048;-80
2023/06/08 01:32:30;;;;;;;20.35;10.85;;;11.50;99.90;;;;;;5069667;28;20075;-80
2023/06/08 01:34:55;;;;;;;21.02;9.38;;;11.50;99.90;;;;;;5087285;28;20076;-80
2023/06/08 01:37:28;;;;;;;18.63;9.35;;;11.50;99.90;;;;;;5087990;28;20530;-80
2023/06/08 01:40:19;;;;;;;17.42;9.48;;;11.50;99.90;;;;;;5069800;28;20098;-79
2023/06/08 01:42:49;;;;;;;17.67;9.57;;;11.50;99.90;;;;;;5086153;28;20043;-80
2023/06/08 01:45:21;;;;;;;18.27;10.23;;;11.50;99.90;;;;;;5069679;28;20496;-80
2023/06/08 01:48:02;;;;;;;18.70;10.05;;;11.50;99.90;;;;;;5087443;28;20075;-80
2023/06/08 01:50:31;;;;;;;16.05;10.75;;;11.50;99.90;;;;;;5087002;28;20047;-80
2023/06/08 01:52:58;;;;;;;16.70;10.25;;;11.50;99.90;;;;;;5087506;28;20051;-77
2023/06/08 01:55:24;;;;;;;17.30;10.30;;;11.50;99.90;;;;;;5087778;28;20093;-79
2023/06/08 01:57:50;;;;;;;19.23;10.20;;;11.50;99.90;;;;;;5086266;28;20056;-80
2023/06/08 02:00:18;;;;;;;17.73;10.27;;;11.50;99.90;;;;;;5069797;28;20043;-80
2023/06/08 02:02:44;;;;;;;16.98;9.45;;;11.50;99.90;;;;;;5088148;28;20133;-79
2023/06/08 02:05:11;;;;;;;16.52;11.10;;;11.50;99.90;;;;;;5087461;28;20052;-80
2023/06/08 02:07:41;;;;;;;16.05;10.10;;;11.40;99.90;;;;;;5087949;28;20062;-80
2023/06/08 02:10:08;;;;;;;17.52;10.13;;;11.40;99.90;;;;;;5086388;28;20467;-80
2023/06/08 02:12:34;;;;;;;17.75;10.63;;;11.40;99.90;;;;;;5069034;28;20140;-80
2023/06/08 02:15:00;;;;;;;24.60;11.13;;;11.40;99.90;;;;;;5086660;28;20464;-79
2023/06/08 02:17:29;;;;;;;17.42;10.63;;;11.40;99.90;;;;;;5087161;28;20047;-78
2023/06/08 02:19:55;;;;;;;19.30;10.07;;;11.40;99.90;;;;;;5086434;28;20048;-79
2023/06/08 02:22:21;;;;;;;15.07;10.43;;;11.40;99.90;;;;;;5087277;28;20053;-80
2023/06/08 02:24:48;;;;;;;21.27;10.52;;;11.40;99.90;;;;;;5086297;28;20051;-79
2023/06/08 02:27:14;;;;;;;20.60;10.10;;;11.50;99.90;;;;;;5087845;28;20040;-79
2023/06/08 02:29:40;;;;;;;16.60;10.27;;;11.50;99.90;;;;;;5086022;28;20097;-81
2023/06/08 02:32:06;;;;;;;19.10;10.55;;;11.40;99.90;;;;;;5085872;28;20159;-80
2023/06/08 02:34:32;;;;;;;15.73;10.30;;;11.40;99.90;;;;;;5085177;28;20079;-80
2023/06/08 02:36:58;;;;;;;17.58;10.32;;;11.30;99.90;;;;;;5087432;28;20083;-79
2023/06/08 02:39:24;;;;;;;16.48;9.45;;;11.30;99.90;;;;;;5087185;28;20036;-79
2023/06/08 02:41:49;;;;;;;15.50;9.50;;;11.30;99.90;;;;;;5087158;28;20044;-80
2023/06/08 02:44:15;;;;;;;15.65;9.98;;;11.30;99.90;;;;;;5086661;28;20472;-80
2023/06/08 02:46:41;;;;;;;15.57;9.85;;;11.30;99.90;;;;;;5086088;28;20113;-80
2023/06/08 02:49:07;;;;;;;16.35;10.55;;;11.30;99.90;;;;;;5086985;28;20131;-80
2023/06/08 02:51:33;;;;;;;17.75;10.90;;;11.30;99.90;;;;;;5086915;28;20184;-80
2023/06/08 02:53:59;;;;;;;16.38;10.40;;;11.30;99.90;;;;;;5085868;28;20122;-80
2023/06/08 02:56:25;;;;;;;14.88;9.75;;;11.80;99.90;;;;;;5086124;28;20535;-80
2023/06/08 02:58:51;;;;;;;17.88;9.77;;;11.40;99.90;;;;;;5052185;28;20105;-80
2023/06/08 03:01:18;;;;;;;15.95;9.57;;;11.40;99.90;;;;;;5089663;28;20047;-79
2023/06/08 03:03:45;;;;;;;16.60;9.73;;;11.40;99.90;;;;;;5072581;28;20048;-80
2023/06/08 03:06:12;;;;;;;13.65;9.77;;;11.40;99.90;;;;;;5089176;28;20044;-79
2023/06/08 03:08:41;;;;;;;16.77;9.48;;;11.40;99.90;;;;;;5089374;28;20048;-80
2023/06/08 03:11:07;;;;;;;18.60;10.10;;;11.40;99.90;;;;;;5089909;28;20048;-80
2023/06/08 03:13:33;;;;;;;15.07;9.57;;;11.40;99.90;;;;;;5090478;28;20097;-80
2023/06/08 03:15:59;;;;;;;16.23;9.23;;;11.40;99.90;;;;;;5090191;28;20102;-79
2023/06/08 03:18:24;;;;;;;16.00;9.30;;;11.40;99.90;;;;;;5089064;28;20076;-79
2023/06/08 03:20:53;;;;;;;15.50;9.93;;;11.70;99.90;;;;;;5071782;28;20072;-80
2023/06/08 03:23:22;;;;;;;17.23;9.57;;;11.20;99.90;;;;;;5088637;28;20040;-79
2023/06/08 03:25:48;;;;;;;17.38;10.15;;;11.20;99.90;;;;;;5088802;28;20131;-79
2023/06/08 03:28:18;;;;;;;16.52;10.75;;;11.10;99.90;;;;;;5089335;28;20132;-79
2023/06/08 03:30:44;;;;;;;25.08;11.98;;;11.10;99.90;;;;;;5089786;28;20123;-80
2023/06/08 03:33:11;;;;;;;19.85;11.05;;;11.00;99.90;;;;;;5071530;28;20460;-80
2023/06/08 03:35:37;;;;;;;21.63;10.85;;;11.40;99.90;;;;;;5088305;28;20055;-80
2023/06/08 03:38:03;;;;;;;17.50;10.85;;;11.10;99.90;;;;;;5072137;28;20044;-80
2023/06/08 03:40:29;;;;;;;18.83;10.05;;;11.10;99.90;;;;;;5088780;28;20040;-80
2023/06/08 03:42:54;;;;;;;17.70;10.38;;;11.10;99.90;;;;;;5088937;28;20051;-80
2023/06/08 03:45:20;;;;;;;16.67;10.07;;;11.10;99.90;;;;;;5070999;28;20468;-80
2023/06/08 03:47:46;;;;;;;18.30;9.38;;;11.10;99.90;;;;;;5088701;28;20044;-79
2023/06/08 03:50:11;;;;;;;17.48;9.98;;;11.10;99.90;;;;;;5088023;28;20070;-80
2023/06/08 03:52:40;;;;;;;18.35;10.35;;;11.10;99.90;;;;;;5088012;28;20052;-79
2023/06/08 03:55:11;;;;;;;16.33;10.77;;;11.20;99.90;;;;;;5088429;28;20052;-79
2023/06/08 03:57:37;;;;;;;16.20;9.80;;;11.10;99.90;;;;;;5087674;28;20093;-79
2023/06/08 04:00:08;;;;;;;18.45;11.05;;;11.10;99.90;;;;;;5087960;28;20043;-79
2023/06/08 04:02:34;;;;;;;17.30;10.82;;;11.20;99.90;;;;;;5089698;28;20066;-79
2023/06/08 04:04:59;;;;;;;16.80;10.90;;;11.40;99.90;;;;;;5087796;28;20429;-79
2023/06/08 04:07:26;;;;;;;19.27;11.23;;;11.20;99.90;;;;;;5087621;28;20040;-79
2023/06/08 04:09:52;;;;;;;16.92;10.55;;;11.20;99.90;;;;;;5087533;28;20089;-79
2023/06/08 04:12:17;;;;;;;18.42;10.23;;;11.30;99.90;;;;;;5087777;28;20408;-78
2023/06/08 04:14:43;;;;;;;16.83;11.00;;;11.20;99.90;;;;;;5087412;28;20441;-79
2023/06/08 04:17:08;;;;;;;18.90;11.50;;;11.30;99.90;;;;;;5088003;28;20109;-80
2023/06/08 04:19:34;;;;;;;22.50;11.80;;;11.30;99.90;;;;;;5088628;28;20101;-79
2023/06/08 04:22:00;;;;;;;18.58;10.88;;;11.30;99.90;;;;;;5088036;28;20059;-80
2023/06/08 04:24:28;;;;;;;20.45;11.00;;;11.40;99.90;;;;;;5087274;28;20048;-79
2023/06/08 04:26:55;;;;;;;17.75;10.73;;;11.40;99.90;;;;;;5089496;28;20055;-79
2023/06/08 04:29:21;;;;;;;20.52;11.38;;;11.40;99.90;;;;;;5070466;28;20503;-79
2023/06/08 04:31:47;;;;;;;17.20;10.70;;;11.40;99.90;;;;;;5087949;28;20059;-79
2023/06/08 04:34:12;;;;;;;19.73;11.10;;;11.50;99.90;;;;;;5087219;28;20628;-79
2023/06/08 04:36:42;;;;;;;16.17;10.75;;;11.50;99.90;;;;;;5070597;28;20048;-80
2023/06/08 04:39:08;;;;;;;16.83;10.65;;;11.60;99.90;;;;;;5087769;28;20110;-80
2023/06/08 04:41:34;;;;;;;20.35;10.68;;;11.60;99.90;;;;;;5088995;28;20052;-80
2023/06/08 04:44:01;;;;;;;19.40;11.40;;;11.60;99.90;;;;;;5088284;28;20148;-79
2023/06/08 04:46:30;;;;;;;18.70;10.38;;;11.70;99.90;;;;;;5088950;28;20043;-79
2023/06/08 04:48:56;;;;;;;15.57;10.10;;;11.30;99.90;;;;;;5086799;28;20056;-79
2023/06/08 04:51:23;;;;;;;21.58;10.95;;;11.90;99.90;;;;;;5070119;28;20048;-79
2023/06/08 04:53:51;;;;;;;16.98;10.48;;;11.90;99.90;;;;;;5088830;28;20040;-80
2023/06/08 04:56:18;;;;;;;18.98;10.20;;;12.00;99.90;;;;;;5086811;28;20415;-80
2023/06/08 04:58:45;;;;;;;14.23;9.40;;;12.00;99.90;;;;;;5088307;28;20083;-80
2023/06/08 05:01:11;;;;;;;20.33;10.75;;;12.10;99.90;;;;;;5070489;28;20044;-80
2023/06/08 05:03:37;;;;;;;16.77;10.27;;;12.20;99.90;;;;;;5088795;28;20522;-79
2023/06/08 05:06:02;;;;;;;14.25;9.98;;;12.30;99.90;;;;;;5085950;28;20128;-79
2023/06/08 05:08:28;;;;;;;14.85;9.32;;;12.40;99.90;;;;;;5088654;28;20044;-79
2023/06/08 05:10:53;;;;;;;15.18;10.00;;;12.40;99.90;;;;;;5088134;28;20052;-79
2023/06/08 05:13:19;;;;;;;13.48;9.85;;;12.50;99.90;;;;;;5087484;28;20052;-80
2023/06/08 05:15:45;;;;;;;15.45;8.88;;;12.50;99.90;;;;;;5087054;28;20381;-79
2023/06/08 05:18:10;;;;;;;16.42;9.80;;;12.50;99.90;;;;;;5087233;28;20051;-80
2023/06/08 05:20:36;;;;;;;17.60;9.95;;;12.50;99.90;;;;;;5088140;28;20073;-80
2023/06/08 05:23:02;;;;;;;18.48;9.48;;;12.50;99.90;;;;;;5087853;28;20423;-81
2023/06/08 05:25:29;;;;;;;13.68;9.15;;;12.50;99.90;;;;;;5089226;28;20046;-79
2023/06/08 05:27:55;;;;;;;17.60;10.38;;;12.50;99.90;;;;;;5087067;28;20447;-79
2023/06/08 05:30:21;;;;;;;15.20;9.13;;;12.90;99.90;;;;;;5087085;28;20056;-79
2023/06/08 05:32:46;;;;;;;13.25;8.80;;;13.50;99.90;;;;;;5087041;28;20062;-80
2023/06/08 05:35:12;;;;;;;16.02;9.25;;;14.30;99.90;;;;;;5070253;28;20156;-80
2023/06/08 05:37:37;;;;;;;13.38;9.35;;;14.40;99.90;;;;;;5088650;28;20143;-79
2023/06/08 05:40:04;;;;;;;16.13;8.68;;;14.60;99.90;;;;;;5087542;28;20391;-79
2023/06/08 05:42:30;;;;;;;16.00;8.77;;;14.80;99.90;;;;;;5086318;28;20044;-79
2023/06/08 05:44:55;;;;;;;15.88;8.98;;;15.30;99.90;;;;;;5086776;28;20050;-81
2023/06/08 05:47:21;;;;;;;12.25;8.73;;;16.00;99.90;;;;;;5088553;28;20047;-80
2023/06/08 05:49:46;;;;;;;12.55;8.38;;;16.90;99.90;;;;;;5086488;28;20456;-80
2023/06/08 05:52:12;;;;;;;11.80;8.18;;;17.40;99.90;;;;;;5087334;28;20287;-80
2023/06/08 05:54:37;;;;;;;14.45;8.30;;;18.00;99.90;;;;;;5088410;28;20181;-79
2023/06/08 05:57:03;;;;;;;13.32;7.95;;;18.30;99.90;;;;;;5088472;28;20044;-79
2023/06/08 05:59:29;;;;;;;13.88;7.88;;;18.70;99.90;;;;;;5088607;28;20533;-79
2023/06/08 06:01:54;;;;;;;13.93;8.60;;;18.90;99.90;;;;;;5087185;28;20052;-79
2023/06/08 06:04:20;;;;;;;14.95;9.00;;;18.90;99.90;;;;;;5086895;28;20036;-79
2023/06/08 06:06:46;;;;;;;18.27;8.38;;;18.90;99.90;;;;;;5088863;28;20036;-81
2023/06/08 06:09:11;;;;;;;12.30;8.85;;;19.00;99.90;;;;;;5087532;28;20048;-80
2023/06/08 06:11:38;;;;;;;13.27;8.55;;;19.10;99.90;;;;;;5087889;28;20048;-78
2023/06/08 06:14:03;;;;;;;12.02;8.45;;;19.50;99.90;;;;;;5087923;28;20048;-79
2023/06/08 06:16:29;;;;;;;12.23;7.20;;;19.70;99.90;;;;;;5087930;28;20505;-79
2023/06/08 06:18:54;;;;;;;10.57;7.50;;;19.90;99.70;;;;;;5087224;28;20101;-79
2023/06/08 06:21:20;;;;;;;12.23;7.80;;;19.50;98.10;;;;;;5086993;28;20127;-81
2023/06/08 06:23:46;;;;;;;9.57;6.95;;;19.90;98.50;;;;;;5086972;28;20052;-80
2023/06/08 06:26:12;;;;;;;11.23;6.63;;;19.50;98.10;;;;;;5088332;28;20110;-80
2023/06/08 06:28:41;;;;;;;10.98;6.97;;;19.60;97.20;;;;;;5087199;28;20082;-80
2023/06/08 06:31:06;;;;;;;14.43;7.53;;;19.70;96.40;;;;;;5088732;28;20504;-80
2023/06/08 06:33:32;;;;;;;11.18;6.35;;;19.60;96.40;;;;;;5089151;28;20138;-79
2023/06/08 06:35:58;;;;;;;9.25;6.15;;;19.80;96.10;;;;;;5091017;28;20141;-80
2023/06/08 06:38:24;;;;;;;9.75;6.00;;;19.50;96.20;;;;;;5091818;28;20131;-81
2023/06/08 06:40:52;;;;;;;17.38;6.75;;;18.70;97.20;;;;;;5090637;28;20047;-80
2023/06/08 06:43:21;;;;;;;10.35;6.13;;;18.00;98.90;;;;;;5093213;28;20044;-80
2023/06/08 06:45:50;;;;;;;7.82;5.72;;;17.50;99.90;;;;;;5092060;28;20043;-81
2023/06/08 06:48:21;;;;;;;10.23;6.28;;;17.10;99.90;;;;;;5091843;28;20074;-77
2023/06/08 06:50:47;;;;;;;11.02;6.03;;;16.80;99.90;;;;;;5092160;28;20039;-80
2023/06/08 06:53:13;;;;;;;13.85;6.53;;;16.60;99.90;;;;;;5093004;28;20503;-81
2023/06/08 06:55:40;;;;;;;10.18;5.93;;;16.60;99.90;;;;;;5094985;28;20048;-81
2023/06/08 06:58:05;;;;;;;9.50;6.13;;;16.60;99.90;;;;;;5094108;28;20127;-81
2023/06/08 07:00:37;;;;;;;13.70;6.50;;;16.60;99.90;;;;;;5093001;28;20116;-80
2023/06/08 07:03:09;;;;;;;11.93;6.70;;;16.60;99.90;;;;;;5092669;28;20602;-80
2023/06/08 07:05:35;;;;;;;10.48;6.20;;;16.70;99.90;;;;;;5091756;28;20056;-81
2023/06/08 07:08:01;;;;;;;11.65;5.97;;;16.60;99.90;;;;;;5092229;28;20044;-79
2023/06/08 07:10:27;;;;;;;11.82;5.90;;;16.50;99.90;;;;;;5073329;28;20526;-80
2023/06/08 07:12:52;;;;;;;10.32;5.53;;;16.40;99.90;;;;;;5090370;28;20036;-80
2023/06/08 07:15:18;;;;;;;9.52;5.65;;;16.40;99.90;;;;;;5091827;28;20075;-80
2023/06/08 07:17:46;;;;;;;9.35;5.75;;;16.50;99.90;;;;;;5090218;28;20518;-80
2023/06/08 07:20:12;;;;;;;8.95;5.63;;;16.70;99.90;;;;;;5089234;28;20088;-80
2023/06/08 07:22:38;;;;;;;13.10;6.25;;;16.90;99.90;;;;;;5091746;28;20051;-80
2023/06/08 07:25:04;;;;;;;11.23;5.88;;;16.90;99.90;;;;;;5088904;28;20051;-79
2023/06/08 07:27:30;;;;;;;11.57;5.70;;;17.00;99.90;;;;;;5089921;28;20547;-79
2023/06/08 07:29:56;;;;;;;10.35;5.65;;;17.50;99.90;;;;;;5091202;28;20128;-80
2023/06/08 07:32:21;;;;;;;9.20;5.65;;;17.60;99.90;;;;;;5088626;28;20052;-79
2023/06/08 07:34:47;;;;;;;10.70;5.80;;;17.40;99.90;;;;;;5089268;28;20415;-80
2023/06/08 07:37:13;;;;;;;9.20;5.35;;;17.60;99.90;;;;;;5092245;28;20052;-80
2023/06/08 07:39:39;;;;;;;7.65;5.38;;;17.50;99.90;;;;;;5090108;28;20056;-80
2023/06/08 07:42:05;;;;;;;11.07;5.32;;;17.60;99.90;;;;;;5073338;28;20059;-80
2023/06/08 07:44:31;;;;;;;9.32;5.60;;;17.70;99.90;;;;;;5091255;28;20089;-80
2023/06/08 07:46:57;;;;;;;8.43;5.45;;;17.80;99.90;;;;;;5089823;28;20516;-81
2023/06/08 07:49:23;;;;;;;9.98;5.68;;;17.90;99.90;;;;;;5089534;28;20036;-80
2023/06/08 07:51:50;;;;;;;8.18;5.07;;;18.10;99.90;;;;;;5090304;28;20048;-80
2023/06/08 07:54:19;;;;;;;7.30;5.20;;;18.20;99.90;;;;;;5090570;28;20143;-80
2023/06/08 07:56:46;;;;;;;10.35;5.57;;;18.20;99.90;;;;;;5091716;28;20101;-80
2023/06/08 07:59:12;;;;;;;8.48;5.38;;;17.90;99.90;;;;;;5091452;28;20079;-80
2023/06/08 08:01:37;;;;;;;10.45;5.28;;;17.90;99.90;;;;;;5073311;28;20475;-80
2023/06/08 08:04:03;;;;;;;10.57;5.93;;;18.00;99.90;;;;;;5089667;28;20036;-79
2023/06/08 08:06:29;;;;;;;12.25;6.72;;;18.40;99.90;;;;;;5092237;28;20084;-79
2023/06/08 08:08:54;;;;;;;8.98;6.05;;;18.30;98.90;;;;;;5089593;28;20040;-80
2023/06/08 08:11:20;;;;;;;10.05;5.90;;;18.40;99.10;;;;;;5090572;28;20040;-79
2023/06/08 08:13:46;;;;;;;10.45;6.07;;;18.40;99.10;;;;;;5072493;28;20055;-79
2023/06/08 08:16:12;;;;;;;7.43;6.05;;;18.40;98.90;;;;;;5089500;28;20040;-80
2023/06/08 08:18:37;;;;;;;7.53;5.38;;;18.30;98.60;;;;;;5090531;28;20052;-80
2023/06/08 08:21:03;;;;;;;9.68;5.65;;;18.40;98.90;;;;;;5091946;28;20044;-80
2023/06/08 08:23:28;;;;;;;11.02;5.18;;;18.30;98.60;;;;;;5090013;28;20097;-80
2023/06/08 08:25:54;;;;;;;12.73;5.30;;;18.00;98.60;;;;;;5089209;28;20159;-80
2023/06/08 08:28:20;;;;;;;11.52;5.18;;;18.50;98.30;;;;;;5072468;28;20052;-80
2023/06/08 08:30:45;;;;;;;10.80;5.57;;;18.70;97.80;;;;;;5090110;28;20095;-80
2023/06/08 08:33:12;;;;;;;9.30;6.00;;;18.80;97.30;;;;;;5091113;28;20051;-80
2023/06/08 08:35:38;;;;;;;11.68;5.75;;;18.80;97.10;;;;;;5089481;28;20044;-78
2023/06/08 08:38:03;;;;;;;8.23;5.93;;;18.60;97.00;;;;;;5089427;28;20085;-79
2023/06/08 08:40:29;;;;;;;9.02;5.60;;;18.20;96.90;;;;;;5090952;28;20086;-80
2023/06/08 08:43:07;;;;;;;12.73;6.18;;;18.70;97.00;;;;;;5071075;28;20414;-79
2023/06/08 08:45:35;;;;;;;9.35;5.80;;;18.80;96.40;;;;;;5089806;28;20051;-80
2023/06/08 08:48:01;;;;;;;8.57;5.45;;;19.20;96.40;;;;;;5072306;28;20044;-79
2023/06/08 08:50:34;;;;;;;9.02;5.43;;;19.50;96.00;;;;;;5087554;28;20093;-79
2023/06/08 08:53:00;;;;;;;10.43;5.72;;;19.90;95.40;;;;;;5089985;28;20059;-80
2023/06/08 08:55:33;;;;;;;12.20;5.70;;;20.20;94.00;;;;;;5088954;28;20048;-79
2023/06/08 08:58:03;;;;;;;7.90;5.00;;;20.60;93.00;;;;;;5087922;28;20127;-80
2023/06/08 09:00:33;;;;;;;7.97;5.38;;;20.40;92.10;;;;;;5091064;28;20044;-80
2023/06/08 09:02:59;;;;;;;10.65;5.60;;;20.50;91.40;;;;;;5091252;28;20047;-79
2023/06/08 09:05:25;;;;;;;12.35;5.57;;;20.30;91.00;;;;;;5091796;28;20083;-79
2023/06/08 09:07:55;;;;;;;9.40;5.68;;;20.10;90.80;;;;;;5089767;28;20577;-81
2023/06/08 09:10:27;;;;;;;9.07;5.10;;;20.10;90.90;;;;;;5090097;28;20244;-81
2023/06/08 09:12:54;;;;;;;9.90;5.20;;;20.10;91.30;;;;;;5088558;28;20052;-80
2023/06/08 09:15:30;;;;;;;7.97;4.55;;;20.30;91.10;;;;;;5093902;28;20083;-80
2023/06/08 09:17:57;;;;;;;8.00;5.32;;;20.40;89.90;;;;;;5093600;28;20040;-81
2023/06/08 09:20:33;;;;;;;12.15;5.70;;;20.40;90.30;;;;;;5089231;28;20044;-81
2023/06/08 09:23:26;;;;;;;9.05;4.80;;;20.40;88.60;;;;;;5075895;28;20089;-80
2023/06/08 09:25:52;;;;;;;8.13;4.70;;;20.60;88.10;;;;;;5094552;28;20399;-80
2023/06/08 09:28:31;;;;;;;9.27;5.30;;;20.70;89.10;;;;;;5091558;28;20055;-81
2023/06/08 09:30:57;;;;;;;10.48;4.90;;;21.00;88.30;;;;;;5089334;28;20075;-80
2023/06/08 09:33:32;;;;;;;10.70;4.90;;;21.20;88.50;;;;;;5087820;28;20052;-80
2023/06/08 09:35:58;;;;;;;10.07;4.38;;;21.00;87.10;;;;;;5089935;28;20047;-80
2023/06/08 09:38:27;;;;;;;8.68;4.13;;;21.10;86.70;;;;;;5090213;28;20040;-79
2023/06/08 09:41:16;;;;;;;7.28;3.80;;;21.10;86.10;;;;;;5089702;28;20055;-78
2023/06/08 09:43:44;;;;;;;7.20;4.47;;;21.30;83.10;;;;;;5090589;28;20044;-79
2023/06/08 09:46:39;;;;;;;7.13;4.07;;;21.30;85.00;;;;;;5091056;28;20072;-80
2023/06/08 09:49:06;;;;;;;8.30;4.43;;;21.30;81.20;;;;;;5087655;28;20097;-80
2023/06/08 09:51:36;;;;;;;7.57;4.22;;;21.40;83.00;;;;;;5087211;28;20075;-80
2023/06/08 09:54:06;;;;;;;9.45;4.43;;;21.60;82.50;;;;;;5090898;28;20115;-80
2023/06/08 09:56:32;;;;;;;6.60;3.33;;;21.50;81.50;;;;;;5088682;28;20051;-80
2023/06/08 09:59:06;;;;;;;9.82;4.05;;;21.70;81.40;;;;;;5087845;28;20036;-80
2023/06/08 10:01:35;;;;;;;6.70;3.65;;;21.90;80.70;;;;;;5072336;28;20066;-80
2023/06/08 10:04:08;;;;;;;8.73;4.10;;;21.80;81.00;;;;;;5071593;28;20103;-80
2023/06/08 10:06:35;;;;;;;9.40;4.22;;;22.00;80.60;;;;;;5089776;28;20093;-80
2023/06/08 10:09:04;;;;;;;8.02;3.97;;;21.80;80.20;;;;;;5090379;28;20067;-80
2023/06/08 10:11:31;;;;;;;8.48;3.80;;;22.00;80.30;;;;;;5073460;28;20048;-79
2023/06/08 10:13:57;;;;;;;6.55;4.00;;;22.40;80.10;;;;;;5076207;28;20487;-79
2023/06/08 10:16:24;;;;;;;7.90;4.00;;;22.10;79.40;;;;;;5088564;28;20396;-80
2023/06/08 10:18:50;;;;;;;9.38;4.00;;;22.30;79.00;;;;;;5093145;28;20075;-80
2023/06/08 10:21:16;;;;;;;7.82;3.95;;;22.30;78.70;;;;;;5094410;28;20055;-78
2023/06/08 10:23:42;;;;;;;6.72;3.72;;;22.30;78.20;;;;;;5079725;28;20064;-79
2023/06/08 10:26:08;;;;;;;8.60;4.22;;;22.50;77.90;;;;;;5075666;28;20041;-80
2023/06/08 10:28:33;;;;;;;9.95;4.00;;;22.80;77.50;;;;;;5075604;28;20044;-81
2023/06/08 10:31:34;;;;;;;8.93;4.30;;;22.80;76.80;;;;;;5071197;28;20540;-80
2023/06/08 10:34:05;;;;;;;9.20;4.43;;;22.90;75.10;;;;;;5077568;28;20060;-80
2023/06/08 10:36:42;;;;;;;8.68;4.32;;;23.00;75.40;;;;;;5076568;28;20049;-80
2023/06/08 10:39:14;;;;;;;8.23;3.95;;;22.70;75.30;;;;;;5071194;28;20091;-81
2023/06/08 10:41:44;;;;;;;8.77;4.30;;;22.80;74.10;;;;;;5084556;28;20218;-81
2023/06/08 10:44:26;;;;;;;8.50;4.00;;;22.70;74.50;;;;;;5072360;28;20052;-80
2023/06/08 10:47:01;;;;;;;9.57;4.15;;;22.70;74.70;;;;;;5084502;28;20127;-81
2023/06/08 10:49:44;;;;;;;9.25;4.10;;;22.90;74.10;;;;;;5090881;28;20044;-81
2023/06/08 10:52:16;;;;;;;7.95;4.10;;;22.50;73.80;;;;;;5090618;28;20578;-81
2023/06/08 10:54:58;;;;;;;8.30;4.47;;;22.90;74.30;;;;;;5090743;28;20129;-80
2023/06/08 10:57:39;;;;;;;;;;;23.10;73.10;;;;;;5077488;28;20067;-81
2023/06/08 11:00:26;;;;;;;8.77;4.30;;;23.10;71.60;;;;;;5093700;28;19927;-81
2023/06/08 11:03:00;;;;;;;5.75;3.95;;;23.20;72.50;;;;;;5058004;28;20056;-80
2023/06/08 11:05:30;;;;;;;8.90;4.30;;;23.30;72.50;;;;;;5061504;28;20051;-81
2023/06/08 11:07:56;;;;;;;9.05;4.53;;;23.00;72.10;;;;;;5078923;28;20048;-81
2023/06/08 11:10:23;;;;;;;6.10;4.28;;;23.50;71.90;;;;;;5078080;28;20063;-82
2023/06/08 11:12:49;;;;;;;7.53;4.30;;;23.40;71.40;;;;;;5078842;28;20040;-81
2023/06/08 11:15:15;;;;;;;10.52;4.32;;;23.40;71.50;;;;;;5086255;28;20101;-81
2023/06/08 11:17:43;;;;;;;9.75;4.30;;;23.40;71.10;;;;;;5096213;28;20046;-81
2023/06/08 11:20:10;;;;;;;8.73;4.00;;;23.40;71.10;;;;;;5059658;28;20143;-81
2023/06/08 11:22:39;;;;;;;6.80;4.10;;;23.50;71.00;;;;;;5092890;28;20542;-81
2023/06/08 11:25:08;;;;;;;9.80;4.72;;;23.60;70.60;;;;;;5083372;28;20036;-81
2023/06/08 11:27:43;;;;;;;8.88;4.28;;;23.60;70.70;;;;;;5092760;28;20074;-81
2023/06/08 11:30:15;;;;;;;8.27;3.95;;;23.70;70.30;;;;;;5074395;28;20063;-81
2023/06/08 11:32:45;;;;;;;9.85;3.70;;;23.60;69.60;;;;;;5072554;28;20048;-81
2023/06/08 11:35:11;;;;;;;8.30;4.53;;;23.60;68.90;;;;;;5079677;28;20062;-81
2023/06/08 11:37:36;;;;;;;9.38;4.28;;;23.70;68.80;;;;;;5077426;28;20075;-80
2023/06/08 11:40:10;;;;;;;6.53;3.67;;;23.70;67.60;;;;;;5076752;28;20459;-80
2023/06/08 11:42:37;;;;;;;8.18;4.10;;;23.70;66.80;;;;;;5075815;28;20132;-80
2023/06/08 11:45:04;;;;;;;10.45;4.30;;;23.80;66.80;;;;;;5087959;28;20107;-81
2023/06/08 11:47:30;;;;;;;9.50;4.40;;;23.70;66.50;;;;;;5077662;28;20163;-81
2023/06/08 11:49:59;;;;;;;6.93;3.92;;;23.90;66.90;;;;;;5069627;28;20036;-81
2023/06/08 11:52:25;;;;;;;6.90;3.95;;;23.90;66.50;;;;;;5072421;28;20276;-81
2023/06/08 11:54:55;;;;;;;6.85;3.80;;;24.00;65.90;;;;;;5070166;28;20067;-81
2023/06/08 11:57:21;;;;;;;6.18;3.33;;;24.00;65.90;;;;;;5070678;28;20135;-81
2023/06/08 11:59:49;;;;;;;5.47;4.10;;;24.00;66.20;;;;;;5074882;28;20044;-82
2023/06/08 12:02:22;;;;;;;6.60;3.88;;;24.10;66.30;;;;;;5072690;28;20052;-81
2023/06/08 12:04:47;;;;;;;8.38;3.97;;;24.20;66.20;;;;;;5069478;28;20052;-81
2023/06/08 12:07:14;;;;;;;9.65;4.53;;;24.30;66.40;;;;;;5069655;28;20457;-81
2023/06/08 12:09:48;;;;;;;8.90;4.43;;;24.30;66.20;;;;;;5070592;28;20052;-82
2023/06/08 12:12:13;;;;;;;8.82;3.97;;;24.30;65.70;;;;;;5053700;28;20484;-81
2023/06/08 12:14:47;;;;;;;8.55;3.83;;;24.30;66.10;;;;;;5073330;28;20052;-81
2023/06/08 12:17:16;;;;;;;7.13;3.92;;;24.30;65.70;;;;;;5072993;28;20419;-81
2023/06/08 12:19:45;;;;;;;10.82;3.67;;;24.30;65.50;;;;;;5071959;28;20088;-81
2023/06/08 12:22:15;;;;;;;5.88;3.50;;;24.30;64.90;;;;;;5071404;28;20511;-81
2023/06/08 12:24:40;;;;;;;7.70;3.88;;;24.40;65.30;;;;;;5073192;28;20523;-81
2023/06/08 12:27:06;;;;;;;8.93;3.75;;;24.50;65.40;;;;;;5071601;28;20045;-81
2023/06/08 12:29:38;;;;;;;8.23;4.10;;;24.40;64.70;;;;;;5072592;28;20040;-82
2023/06/08 12:32:05;;;;;;;9.88;3.88;;;24.50;64.90;;;;;;5069039;28;20139;-81
2023/06/08 12:34:32;;;;;;;7.47;4.57;;;24.60;65.10;;;;;;5069057;28;20040;-81
2023/06/08 12:36:57;;;;;;;7.20;3.60;;;24.70;64.80;;;;;;5068538;28;20078;-81
2023/06/08 12:39:23;;;;;;;6.70;3.95;;;24.90;64.70;;;;;;5071353;28;20094;-80
2023/06/08 12:41:49;;;;;;;6.25;3.50;;;24.90;64.20;;;;;;5068762;28;20418;-81